Time;durP1;ratioP1;P1;durP2;ratioP2;P2;SDS_P1;SDS_P2;PMS_P1;PMS_P2;Temp;Humidity;BMP_temperature;BMP_pressure;BME280_temperature;BME280_humidity;BME280_pressure;Samples;Min_cycle;Max_cycle;Signal;HPM_P1;HPM_P2
2021/10/28 00:13:09;;;;;;;;;20.25;18.50;;;;;18.38;100.00;101459.75;5066628;28;45499;-80
2021/10/28 00:15:37;;;;;;;;;23.25;19.25;;;;;18.38;100.00;101465.09;5060372;28;45582;-80
2021/10/28 00:20:34;;;;;;;;;16.50;16.50;;;;;18.27;100.00;101453.50;5060447;28;45364;-80
2021/10/28 00:23:00;;;;;;;;;19.75;16.75;;;;;18.22;100.00;101444.19;5059060;28;46139;-79
2021/10/28 00:25:25;;;;;;;;;22.00;19.50;;;;;18.27;100.00;101441.97;5060463;28;45274;-80
2021/10/28 00:27:51;;;;;;;;;21.00;18.50;;;;;18.23;100.00;101437.88;5066158;28;45197;-80
2021/10/28 00:30:20;;;;;;;;;20.25;16.25;;;;;18.14;100.00;101428.84;5060131;28;45212;-80
2021/10/28 00:32:47;;;;;;;;;21.75;19.50;;;;;18.13;100.00;101431.63;5060003;28;45433;-80
2021/10/28 00:35:13;;;;;;;;;19.75;17.00;;;;;18.12;100.00;101430.78;5060108;28;45599;-80
2021/10/28 00:37:38;;;;;;;;;18.75;15.00;;;;;18.14;100.00;101428.00;5042091;28;45280;-80
2021/10/28 00:40:07;;;;;;;;;22.25;18.50;;;;;18.15;100.00;101427.84;5060059;28;45229;-80
2021/10/28 00:42:33;;;;;;;;;25.50;20.75;;;;;18.16;100.00;101420.69;5043280;28;45962;-81
2021/10/28 00:44:59;;;;;;;;;19.00;18.00;;;;;18.13;100.00;101418.28;5022042;28;45416;-81
2021/10/28 00:47:24;;;;;;;;;20.75;16.50;;;;;18.10;100.00;101416.75;5039642;28;45395;-80
2021/10/28 00:49:50;;;;;;;;;23.75;15.50;;;;;18.11;100.00;101412.25;5039729;28;45293;-80
2021/10/28 00:52:15;;;;;;;;;20.00;15.75;;;;;18.17;100.00;101414.34;5039745;28;45364;-80
2021/10/28 00:54:42;;;;;;;;;25.25;17.25;;;;;18.16;100.00;101412.66;5039807;28;45395;-80
2021/10/28 00:57:07;;;;;;;;;21.75;17.75;;;;;18.13;100.00;101412.94;5024238;28;46608;-81
2021/10/28 00:59:33;;;;;;;;;21.50;19.25;;;;;18.11;100.00;101413.09;5042087;28;45635;-80
2021/10/28 01:01:58;;;;;;;;;18.50;15.75;;;;;18.08;100.00;101410.69;5059665;28;45233;-81
2021/10/28 01:04:24;;;;;;;;;19.50;16.25;;;;;18.09;100.00;101399.00;5059495;28;45220;-80
2021/10/28 01:06:50;;;;;;;;;16.00;16.00;;;;;18.08;100.00;101402.66;5059846;28;45418;-80
2021/10/28 01:09:15;;;;;;;;;17.50;15.00;;;;;18.08;100.00;101399.13;5059697;28;45567;-81
2021/10/28 01:11:40;;;;;;;;;21.25;15.50;;;;;18.04;100.00;101397.69;5059488;28;45302;-80
2021/10/28 01:14:06;;;;;;;;;19.25;13.00;;;;;17.97;100.00;101392.06;5066260;28;45221;-80
2021/10/28 01:16:32;;;;;;;;;21.50;16.75;;;;;17.89;100.00;101390.06;5059636;28;45284;-80
2021/10/28 01:18:58;;;;;;;;;18.75;14.00;;;;;17.83;100.00;101398.63;5059198;28;45526;-80
2021/10/28 01:21:24;;;;;;;;;17.00;17.00;;;;;17.82;100.00;101378.25;5059248;28;45904;-81
2021/10/28 01:23:49;;;;;;;;;18.50;17.75;;;;;17.82;100.00;101388.94;5041477;28;46122;-80
2021/10/28 01:26:16;;;;;;;;;16.75;16.50;;;;;17.73;100.00;101384.38;5059390;28;45419;-80
2021/10/28 01:28:56;;;;;;;;;19.00;16.50;;;;;17.87;100.00;101383.16;5065414;28;45477;-80
2021/10/28 01:31:25;;;;;;;;;20.50;16.50;;;;;17.82;100.00;101391.59;5059222;28;45349;-80
2021/10/28 01:33:52;;;;;;;;;28.00;18.25;;;;;17.77;100.00;101380.44;5060218;28;45454;-80
2021/10/28 01:36:19;;;;;;;;;20.25;14.50;;;;;17.71;100.00;101372.97;5062876;28;45284;-80
2021/10/28 01:38:46;;;;;;;;;19.00;16.50;;;;;17.65;100.00;101370.00;5062603;28;45455;-80
2021/10/28 01:41:12;;;;;;;;;21.75;20.25;;;;;17.61;100.00;101374.72;5062522;28;46187;-80
2021/10/28 01:43:37;;;;;;;;;21.00;17.50;;;;;17.61;100.00;101366.72;5063004;28;45427;-80
2021/10/28 01:46:04;;;;;;;;;24.75;19.75;;;;;17.66;100.00;101364.53;5062840;28;45890;-80
2021/10/28 01:48:31;;;;;;;;;12.50;10.50;;;;;17.55;100.00;101369.94;5062279;28;45419;-80
2021/10/28 01:50:57;;;;;;;;;19.00;15.25;;;;;17.57;100.00;101357.31;5044306;28;46938;-80
2021/10/28 01:53:22;;;;;;;;;20.75;19.25;;;;;17.55;100.00;101360.09;5062650;28;45280;-80
2021/10/28 01:55:48;;;;;;;;;18.00;16.00;;;;;17.54;100.00;101357.56;5048886;28;45202;-80
2021/10/28 01:58:16;;;;;;;;;20.25;17.00;;;;;17.42;100.00;101364.78;5070119;28;45170;-80
2021/10/28 02:00:43;;;;;;;;;20.25;17.75;;;;;17.47;100.00;101356.41;5044265;28;47152;-80
2021/10/28 02:03:09;;;;;;;;;16.75;15.00;;;;;17.46;100.00;101368.06;5062103;28;45458;-80
2021/10/28 02:05:35;;;;;;;;;19.50;17.75;;;;;17.39;100.00;101353.56;5044416;28;45272;-80
2021/10/28 02:08:01;;;;;;;;;19.25;12.25;;;;;17.19;100.00;101358.78;5062553;28;45521;-81
2021/10/28 02:10:27;;;;;;;;;20.00;16.75;;;;;17.15;100.00;101349.31;5062271;28;45332;-79
2021/10/28 02:12:56;;;;;;;;;23.25;19.50;;;;;17.11;100.00;101344.41;5049659;28;46426;-79
2021/10/28 02:15:22;;;;;;;;;17.00;14.00;;;;;17.14;100.00;101341.44;5044751;28;45253;-79
2021/10/28 02:17:47;;;;;;;;;25.75;17.75;;;;;17.27;100.00;101344.78;5045627;28;45415;-80
2021/10/28 02:20:15;;;;;;;;;22.50;18.50;;;;;17.30;100.00;101333.81;5063630;28;46011;-80
2021/10/28 02:22:42;;;;;;;;;20.50;17.75;;;;;17.07;100.00;101334.94;5044064;28;45572;-81
2021/10/28 02:25:09;;;;;;;;;18.75;16.75;;;;;17.01;100.00;101325.66;5062252;28;45264;-80
2021/10/28 02:27:34;;;;;;;;;22.75;19.75;;;;;16.82;100.00;101330.84;5067988;28;45428;-80
2021/10/28 02:30:01;;;;;;;;;17.50;16.00;;;;;16.76;100.00;101321.53;5061927;28;45375;-80
2021/10/28 02:32:26;;;;;;;;;18.25;13.75;;;;;16.80;100.00;101324.78;5043787;28;45263;-80
2021/10/28 02:34:52;;;;;;;;;16.25;15.75;;;;;16.79;100.00;101320.44;5061900;28;45344;-80
2021/10/28 02:37:19;;;;;;;;;18.00;13.00;;;;;16.78;100.00;101308.91;5061721;28;45517;-80
2021/10/28 02:39:47;;;;;;;;;16.25;14.75;;;;;16.80;100.00;101312.31;5043748;28;48255;-80
2021/10/28 02:42:13;;;;;;;;;19.25;16.00;;;;;16.75;100.00;101303.00;5061862;28;45244;-80
2021/10/28 02:44:39;;;;;;;;;16.75;12.50;;;;;16.66;100.00;101301.94;5043530;28;45450;-80
2021/10/28 02:47:04;;;;;;;;;16.00;14.75;;;;;16.67;100.00;101303.63;5042983;28;45573;-79
2021/10/28 02:49:30;;;;;;;;;17.00;12.75;;;;;16.63;100.00;101307.56;5061508;28;45996;-80
2021/10/28 02:51:55;;;;;;;;;17.50;17.50;;;;;16.58;100.00;101300.88;5029349;28;45885;-80
2021/10/28 02:54:22;;;;;;;;;16.00;13.25;;;;;16.66;100.00;101301.94;5041952;28;45565;-80
2021/10/28 02:56:49;;;;;;;;;17.25;15.50;;;;;16.66;100.00;101296.59;5038182;28;45751;-80
2021/10/28 02:59:16;;;;;;;;;16.75;16.75;;;;;16.69;100.00;101299.03;5044678;28;46969;-80
2021/10/28 03:01:46;;;;;;;;;11.00;10.25;;;;;16.71;100.00;101297.09;5063468;28;45293;-80
2021/10/28 03:04:18;;;;;;;;;17.25;15.75;;;;;16.58;100.00;101299.03;5038060;28;45194;-80
2021/10/28 03:06:44;;;;;;;;;24.75;16.25;;;;;16.44;100.00;101302.88;5044031;28;45313;-80
2021/10/28 03:09:16;;;;;;;;;19.50;17.00;;;;;16.37;100.00;101299.03;5042602;28;45642;-78
2021/10/28 03:11:43;;;;;;;;;16.75;14.00;;;;;16.28;100.00;101297.13;5041899;28;44967;-79
2021/10/28 03:14:13;;;;;;;;;20.25;15.25;;;;;16.27;100.00;101290.09;5076914;27;45231;-79
2021/10/28 03:27:23;;;;;;;;;23.50;15.25;;;;;15.96;100.00;101281.09;5066617;28;45224;-79
2021/10/28 03:29:49;;;;;;;;;17.00;15.00;;;;;15.95;100.00;101275.91;5061272;28;45348;-79
2021/10/28 03:32:15;;;;;;;;;17.00;16.00;;;;;15.96;100.00;101275.78;5061285;28;45223;-81
2021/10/28 03:34:41;;;;;;;;;15.50;14.00;;;;;15.98;100.00;101278.31;5042813;28;45380;-80
2021/10/28 03:37:12;;;;;;;;;19.50;15.75;;;;;16.08;100.00;101274.78;5043218;28;45436;-80
2021/10/28 03:40:00;;;;;;;;;19.75;17.75;;;;;15.99;100.00;101261.38;5043202;28;48193;-80
2021/10/28 03:42:57;;;;;;;;;14.75;14.75;;;;;16.02;100.00;101261.13;5042878;28;45190;-81
2021/10/28 04:31:10;;;;;;;;;17.25;14.75;;;;;15.91;100.00;101247.84;5060083;28;45394;-80
2021/10/28 04:33:41;;;;;;;;;15.00;13.50;;;;;15.87;100.00;101249.91;5041959;28;48459;-81
2021/10/28 04:36:08;;;;;;;;;14.50;14.00;;;;;15.99;100.00;101240.91;5060406;28;45731;-80
2021/10/28 04:38:33;;;;;;;;;17.75;13.50;;;;;15.90;100.00;101233.66;5060149;28;45409;-80
2021/10/28 04:40:58;;;;;;;;;21.00;15.00;;;;;15.91;100.00;101245.19;5059970;28;45300;-80
2021/10/28 04:43:24;;;;;;;;;7.50;1.75;;;;;15.98;100.00;101236.56;5041791;28;48473;-80
2021/10/28 04:45:49;;;;;;;;;22.00;14.00;;;;;15.95;100.00;101244.78;5059707;28;45300;-81
2021/10/28 04:48:15;;;;;;;;;25.75;16.75;;;;;15.98;100.00;101252.53;5041709;28;45470;-80
2021/10/28 04:50:40;;;;;;;;;19.75;14.00;;;;;16.00;100.00;101244.41;5059919;28;45404;-80
2021/10/28 04:53:06;;;;;;;;;17.00;12.25;;;;;16.02;100.00;101245.16;5042117;28;46848;-81
2021/10/28 04:55:31;;;;;;;;;14.50;14.50;;;;;15.89;100.00;101252.44;5043743;28;45396;-81
2021/10/28 04:57:57;;;;;;;;;16.50;14.00;;;;;15.80;100.00;101243.38;5069472;28;45454;-81
2021/10/28 05:00:23;;;;;;;;;15.25;14.25;;;;;15.78;100.00;101247.13;5041727;28;45525;-81
2021/10/28 05:02:48;;;;;;;;;23.50;17.25;;;;;15.75;100.00;101244.75;5059574;28;45348;-81
2021/10/28 05:05:14;;;;;;;;;19.50;15.75;;;;;15.71;100.00;101246.78;5041405;28;45225;-81
2021/10/28 05:07:39;;;;;;;;;18.75;16.25;;;;;15.73;100.00;101246.69;5049204;28;45462;-81
2021/10/28 05:10:05;;;;;;;;;17.50;15.75;;;;;15.66;100.00;101246.31;5024593;28;45489;-81
2021/10/28 05:12:31;;;;;;;;;20.00;15.75;;;;;15.60;100.00;101246.81;5029508;28;47952;-81
2021/10/28 05:14:56;;;;;;;;;18.25;17.00;;;;;15.58;100.00;101246.94;5041620;28;46208;-81
2021/10/28 05:17:21;;;;;;;;;20.25;15.25;;;;;15.55;100.00;101249.00;5045518;28;45320;-80
2021/10/28 05:19:47;;;;;;;;;21.50;16.00;;;;;15.47;100.00;101243.41;5045096;28;46197;-80
2021/10/28 05:22:12;;;;;;;;;21.00;15.25;;;;;15.45;100.00;101243.53;5045125;28;48269;-80
2021/10/28 05:24:37;;;;;;;;;16.50;14.00;;;;;15.49;100.00;101238.78;5063103;28;45374;-79
2021/10/28 05:27:04;;;;;;;;;19.75;15.00;;;;;15.42;100.00;101238.44;5047386;28;45569;-80
2021/10/28 05:29:29;;;;;;;;;21.00;15.00;;;;;15.38;100.00;101238.84;5048437;28;45541;-80
2021/10/28 05:31:55;;;;;;;;;20.75;16.50;;;;;15.26;100.00;101248.63;5063356;28;45482;-79
2021/10/28 05:34:21;;;;;;;;;19.50;16.50;;;;;15.35;100.00;101248.75;5044369;28;45771;-79
2021/10/28 05:36:46;;;;;;;;;21.00;16.00;;;;;15.35;100.00;101247.91;5045391;28;45347;-79
2021/10/28 05:39:12;;;;;;;;;24.50;18.00;;;;;15.38;100.00;101252.13;5062828;28;45443;-80
2021/10/28 05:41:37;;;;;;;;;19.75;15.75;;;;;15.20;100.00;101249.13;5062919;28;45859;-79
2021/10/28 05:44:03;;;;;;;;;22.75;17.75;;;;;15.28;100.00;101254.69;5044687;28;45985;-80
2021/10/28 05:46:29;;;;;;;;;22.75;20.75;;;;;15.29;100.00;101245.72;5063326;28;45216;-80
2021/10/28 05:48:54;;;;;;;;;21.75;19.25;;;;;15.26;100.00;101254.78;5044104;28;45509;-80
2021/10/28 05:51:20;;;;;;;;;20.50;17.75;;;;;15.29;100.00;101251.06;5062920;28;46326;-80
2021/10/28 05:53:47;;;;;;;;;24.50;17.25;;;;;15.16;100.00;101258.28;5044651;28;45755;-80
2021/10/28 05:56:13;;;;;;;;;20.75;16.75;;;;;15.10;100.00;101245.47;5070831;28;45260;-79
2021/10/28 05:58:38;;;;;;;;;21.00;19.50;;;;;15.15;100.00;101243.28;5066607;28;45486;-79
2021/10/28 06:01:04;;;;;;;;;22.00;19.00;;;;;15.05;100.00;101232.53;5062545;28;45482;-79
2021/10/28 06:03:30;;;;;;;;;21.50;20.25;;;;;15.02;100.00;101246.09;5062041;28;45505;-79
2021/10/28 06:05:56;;;;;;;;;22.25;18.25;;;;;15.02;100.00;101243.44;5044683;28;45415;-80
2021/10/28 06:08:21;;;;;;;;;19.00;15.00;;;;;15.01;100.00;101251.53;5062269;28;45281;-80
2021/10/28 06:10:47;;;;;;;;;15.75;14.25;;;;;14.99;100.00;101251.63;5062250;28;45404;-80
2021/10/28 06:13:12;;;;;;;;;22.50;19.25;;;;;15.00;100.00;101248.00;5068294;28;45474;-80
2021/10/28 06:15:37;;;;;;;;;21.50;18.50;;;;;14.98;100.00;101236.66;5044434;28;45393;-80
2021/10/28 06:18:34;;;;;;;;;27.50;19.50;;;;;15.06;100.00;101241.34;5043954;28;45901;-79
2021/10/28 06:20:57;;;;;;;;;24.25;18.00;;;;;15.13;100.00;101238.09;5060629;28;45918;-80
2021/10/28 06:23:22;;;;;;;;;21.00;14.50;;;;;15.13;100.00;101238.09;5061973;28;45382;-80
2021/10/28 06:25:48;;;;;;;;;23.25;19.00;;;;;15.19;100.00;101242.09;5062864;28;45383;-80
2021/10/28 06:28:13;;;;;;;;;22.25;19.00;;;;;15.30;100.00;101244.72;5067992;28;45501;-80
2021/10/28 06:30:39;;;;;;;;;21.00;17.75;;;;;15.27;100.00;101240.53;5043818;28;48216;-80
2021/10/28 06:33:09;;;;;;;;;22.00;16.00;;;;;15.27;100.00;101251.16;5043349;28;45269;-80
2021/10/28 06:35:42;;;;;;;;;30.25;20.75;;;;;15.35;100.00;101242.56;5062152;28;45310;-80
2021/10/28 06:38:07;;;;;;;;;26.25;18.50;;;;;15.35;100.00;101243.41;5061906;28;45249;-81
2021/10/28 06:40:33;;;;;;;;;23.00;19.25;;;;;15.40;100.00;101252.84;5062113;28;45467;-79
2021/10/28 06:42:59;;;;;;;;;26.50;23.00;;;;;15.33;100.00;101255.16;5062004;28;45390;-80
2021/10/28 06:45:25;;;;;;;;;27.00;19.50;;;;;15.34;100.00;101255.03;5043861;28;45355;-80
2021/10/28 06:47:50;;;;;;;;;23.50;19.00;;;;;15.26;100.00;101253.94;5043604;28;45382;-79
2021/10/28 06:50:18;;;;;;;;;26.50;22.75;;;;;15.26;100.00;101262.78;5043901;28;47110;-81
2021/10/28 07:03:31;;;;;;;;;23.50;20.75;;;;;15.30;100.00;101253.56;5061217;28;45435;-81
2021/10/28 07:06:09;;;;;;;;;28.25;22.25;;;;;15.31;100.00;101252.59;5043713;28;45339;-81
2021/10/28 07:08:37;;;;;;;;;24.50;17.50;;;;;15.35;100.00;101246.09;5061493;28;45416;-81
2021/10/28 07:11:07;;;;;;;;;24.00;20.00;;;;;15.38;100.00;101242.34;5043339;28;48305;-81
2021/10/28 07:13:34;;;;;;;;;22.75;21.25;;;;;15.51;100.00;101242.19;5068275;28;45391;-80
2021/10/28 07:16:10;;;;;;;;;23.50;18.75;;;;;15.51;100.00;101235.06;5061487;28;45272;-81
2021/10/28 07:18:53;;;;;;;;;28.75;20.50;;;;;15.54;100.00;101248.16;5042790;28;45676;-81
2021/10/28 07:58:42;;;;;;;;;19.00;19.00;;;;;16.28;100.00;101250.97;5053141;28;45455;-81
2021/10/28 08:15:10;;;;;;;;;32.50;23.25;;;;;23.24;100.00;101230.44;5058809;28;45341;-82
2021/10/28 08:17:54;;;;;;;;;24.00;20.00;;;;;24.03;100.00;101206.97;5062079;28;45295;-79
2021/10/28 08:20:41;;;;;;;;;25.25;20.75;;;;;24.98;96.76;101200.91;5031663;28;45460;-79
2021/10/28 08:23:13;;;;;;;;;12.25;11.00;;;;;25.85;100.00;101205.56;5082745;28;44897;-79
2021/10/28 08:28:44;;;;;;;;;20.25;19.00;;;;;27.05;86.93;101198.22;5089902;28;45463;-80
2021/10/28 08:31:11;;;;;;;;;22.75;20.75;;;;;27.52;90.58;101206.38;5055887;28;45206;-80
2021/10/28 08:33:36;;;;;;;;;27.00;21.75;;;;;27.82;84.96;101200.66;5042395;28;45422;-80
2021/10/28 08:36:08;;;;;;;;;25.25;20.75;;;;;28.09;76.21;101186.09;5060815;28;46011;-80
2021/10/28 08:38:35;;;;;;;;;21.00;21.00;;;;;27.97;74.47;101193.16;5060836;28;45443;-80
2021/10/28 08:41:04;;;;;;;;;25.50;20.50;;;;;27.47;71.82;101194.47;5060879;28;45219;-80
2021/10/28 08:43:35;;;;;;;;;23.75;22.25;;;;;27.72;73.89;101189.38;5059753;28;45446;-80
2021/10/28 08:46:05;;;;;;;;;23.25;22.00;;;;;28.11;74.67;101183.19;5042184;28;47292;-80
2021/10/28 08:48:33;;;;;;;;;22.75;22.00;;;;;28.45;68.86;101174.00;5042154;28;45416;-80
2021/10/28 08:51:09;;;;;;;;;22.00;21.50;;;;;28.79;67.62;101176.50;5060282;28;45332;-79
2021/10/28 08:56:04;;;;;;;;;24.75;21.25;;;;;29.17;65.37;101167.59;5066286;28;45245;-80
2021/10/28 09:26:31;;;;;;;;;29.75;23.25;;;;;27.02;56.99;101144.44;5059334;28;45161;-81
2021/10/28 09:29:07;;;;;;;;;24.75;22.25;;;;;27.28;57.23;101132.84;5047214;28;45930;-81
2021/10/28 09:31:36;;;;;;;;;25.50;24.75;;;;;27.54;59.59;101132.97;5058355;28;45409;-81
2021/10/28 09:48:04;;;;;;;;;23.50;22.50;;;;;27.48;59.88;101134.59;5059369;28;45256;-82
2021/10/28 09:50:40;;;;;;;;;29.25;23.50;;;;;27.20;59.17;101120.31;5059233;28;46139;-81
2021/10/28 09:53:22;;;;;;;;;24.25;22.50;;;;;27.09;59.66;101140.72;5059366;28;45252;-81
2021/10/28 09:58:31;;;;;;;;;25.00;23.75;;;;;26.76;60.62;101120.72;5070415;28;45457;-82
2021/10/28 10:00:57;;;;;;;;;21.00;17.25;;;;;26.75;61.34;101135.28;5062671;28;46081;-82
2021/10/28 10:03:26;;;;;;;;;22.50;21.50;;;;;26.66;61.78;101120.25;5062131;28;45388;-82
2021/10/28 10:06:05;;;;;;;;;18.25;16.25;;;;;26.57;60.58;101127.69;5062730;28;45328;-82
2021/10/28 10:08:34;;;;;;;;;22.50;20.00;;;;;26.52;60.48;101126.59;5062427;28;45609;-82
2021/10/28 10:11:00;;;;;;;;;24.25;20.50;;;;;26.46;62.00;101120.09;5044340;28;48432;-82
2021/10/28 10:13:27;;;;;;;;;22.00;18.00;;;;;26.46;61.98;101117.41;5068235;28;45450;-82
2021/10/28 10:16:01;;;;;;;;;23.50;19.00;;;;;26.42;62.40;101106.13;5062760;28;45232;-82
2021/10/28 10:18:29;;;;;;;;;17.75;16.50;;;;;26.60;61.13;101102.88;5038803;28;45268;-83
2021/10/28 10:21:01;;;;;;;;;1.25;0.00;;;;;26.63;62.77;101096.25;5050103;28;45411;-82
2021/10/28 11:05:15;;;;;;;;;15.75;14.00;;;;;26.37;63.17;101049.00;5041262;28;45475;-82
2021/10/28 11:30:54;;;;;;;;;22.50;18.25;;;;;27.23;61.33;101008.72;5040826;28;45461;-82
2021/10/28 11:33:38;;;;;;;;;18.00;16.00;;;;;27.14;60.81;100997.22;5040416;28;45337;-82
2021/10/28 12:46:00;;;;;;;;;9.50;8.75;;;;;27.78;58.83;100852.84;5040200;28;45163;-82
2021/10/28 12:56:07;;;;;;;;;12.50;9.50;;;;;27.79;56.88;100824.66;5044818;28;45344;-82
2021/10/28 13:05:05;;;;;;;;;9.00;8.00;;;;;27.40;56.47;100797.63;5035082;28;45359;-82
2021/10/28 13:27:56;;;;;;;;;12.00;11.00;;;;;27.44;57.71;100799.69;5039559;28;45430;-81
2021/10/28 13:38:05;;;;;;;;;13.00;9.00;;;;;27.19;59.46;100763.44;5062836;28;45229;-81
2021/10/28 13:49:04;;;;;;;;;9.50;8.00;;;;;27.04;57.71;100752.81;5042747;28;45356;-81
2021/10/28 13:51:39;;;;;;;;;8.00;7.50;;;;;27.08;57.65;100756.78;5043124;28;45453;-82
2021/10/28 14:23:37;;;;;;;;;8.50;8.00;;;;;26.28;58.12;100730.72;5042111;28;45343;-80
2021/10/28 14:35:04;;;;;;;;;11.25;9.00;;;;;26.46;60.00;100716.56;5041542;28;45432;-81
2021/10/28 15:29:14;;;;;;;;;14.00;10.00;;;;;25.76;58.80;100681.88;5047142;28;45341;-81
2021/10/28 15:37:17;;;;;;;;;14.00;10.00;;;;;25.48;57.98;100669.28;5041300;28;45370;-82
2021/10/28 15:40:11;;;;;;;;;8.75;7.00;;;;;25.29;58.27;100675.41;5023169;28;45430;-82
2021/10/28 15:59:03;;;;;;;;;6.25;4.00;;;;;24.45;61.11;100651.19;5049724;28;45306;-81
2021/10/28 16:23:12;;;;;;;;;8.00;7.50;;;;;23.42;67.84;100629.13;5040166;28;45372;-81
2021/10/28 16:25:37;;;;;;;;;6.25;4.75;;;;;23.40;68.13;100626.63;5040331;28;45357;-81
2021/10/28 16:28:03;;;;;;;;;8.00;7.75;;;;;23.31;69.05;100625.06;5045945;28;45386;-80
2021/10/28 16:30:29;;;;;;;;;12.75;7.50;;;;;23.18;69.83;100630.31;5039409;28;45305;-81
2021/10/28 16:32:54;;;;;;;;;8.75;8.50;;;;;23.09;70.30;100621.50;5021841;28;45669;-81
2021/10/28 16:35:20;;;;;;;;;19.50;11.00;;;;;23.12;70.40;100625.69;5022441;28;48228;-81
2021/10/28 16:37:45;;;;;;;;;12.00;12.00;;;;;23.02;71.42;100617.91;5040019;28;45297;-79
2021/10/28 16:40:11;;;;;;;;;15.25;9.75;;;;;22.92;71.42;100624.59;5040212;28;45268;-81
2021/10/28 16:42:37;;;;;;;;;13.75;11.00;;;;;22.91;71.75;100610.28;5039737;28;45183;-82
2021/10/28 16:45:06;;;;;;;;;13.00;12.25;;;;;22.89;72.00;100598.03;5021950;28;47246;-81
2021/10/28 16:47:31;;;;;;;;;14.25;11.75;;;;;22.95;72.06;100611.56;5039422;28;45448;-81
2021/10/28 16:49:57;;;;;;;;;11.50;10.75;;;;;22.82;72.89;100602.47;5040194;28;45332;-81
2021/10/28 16:52:22;;;;;;;;;13.00;9.75;;;;;22.81;73.13;100603.50;5039719;28;45393;-81
2021/10/28 16:54:47;;;;;;;;;15.25;11.50;;;;;22.76;73.28;100621.03;5039985;28;45431;-82
2021/10/28 16:57:13;;;;;;;;;11.75;9.25;;;;;22.66;73.34;100595.41;5050310;28;45276;-81
2021/10/28 16:59:38;;;;;;;;;12.50;7.25;;;;;22.65;74.23;100601.81;5040374;28;45582;-81
2021/10/28 17:02:03;;;;;;;;;16.75;10.75;;;;;22.41;75.44;100589.44;5039591;28;45399;-81
2021/10/28 17:04:30;;;;;;;;;10.00;10.00;;;;;22.40;75.49;100596.66;5040263;28;45461;-81
2021/10/28 17:06:55;;;;;;;;;10.25;10.00;;;;;22.38;75.31;100604.09;5043240;28;45459;-81
2021/10/28 17:09:21;;;;;;;;;11.75;10.50;;;;;22.42;75.67;100609.94;5043496;28;45230;-81
2021/10/28 17:11:46;;;;;;;;;12.25;10.50;;;;;22.37;75.74;100607.81;5025092;28;45591;-81
2021/10/28 17:14:11;;;;;;;;;10.50;10.50;;;;;22.33;76.27;100609.19;5048040;28;45389;-81
2021/10/28 17:16:44;;;;;;;;;14.25;12.75;;;;;22.37;76.29;100615.88;5043196;28;45181;-81
2021/10/28 17:19:10;;;;;;;;;14.00;11.00;;;;;22.36;76.42;100610.69;5042897;28;45238;-82
2021/10/28 17:21:36;;;;;;;;;11.00;10.00;;;;;22.32;76.68;100612.88;5042867;28;45392;-81
2021/10/28 17:24:04;;;;;;;;;11.00;9.75;;;;;22.33;77.87;100609.19;5025083;28;46276;-81
2021/10/28 17:26:32;;;;;;;;;11.50;11.00;;;;;22.28;77.22;100608.91;5042715;28;45336;-81
2021/10/28 17:29:00;;;;;;;;;10.25;10.25;;;;;22.27;77.32;100609.94;5047174;28;45369;-81
2021/10/28 17:31:27;;;;;;;;;17.50;14.25;;;;;22.17;78.00;100601.28;5042691;28;45256;-81
2021/10/28 17:33:53;;;;;;;;;15.50;12.75;;;;;22.11;78.16;100604.69;5042327;28;45701;-81
2021/10/28 17:36:18;;;;;;;;;13.75;13.00;;;;;22.13;78.99;100607.19;5024848;28;45218;-81
2021/10/28 17:38:44;;;;;;;;;11.00;10.00;;;;;22.03;78.64;100610.97;5043054;28;45234;-81
2021/10/28 17:41:09;;;;;;;;;13.00;11.50;;;;;22.04;79.65;100614.50;5024595;28;45530;-81
2021/10/28 17:43:40;;;;;;;;;10.75;10.50;;;;;22.03;79.94;100608.28;5024576;28;47363;-81
2021/10/28 17:46:07;;;;;;;;;11.75;9.75;;;;;21.94;80.42;100601.25;5042730;28;45210;-81
2021/10/28 17:48:32;;;;;;;;;13.50;10.50;;;;;21.91;81.45;100609.69;5024375;28;45302;-81
2021/10/28 17:50:58;;;;;;;;;13.00;11.75;;;;;21.82;81.38;100601.88;5042503;28;45607;-81
2021/10/28 17:53:24;;;;;;;;;17.25;13.00;;;;;21.83;81.26;100609.78;5042644;28;46078;-81
2021/10/28 17:55:50;;;;;;;;;17.00;14.00;;;;;21.72;82.33;100603.97;5047275;28;45554;-81
2021/10/28 17:58:15;;;;;;;;;14.00;11.50;;;;;21.69;82.48;100598.94;5031727;28;45329;-81
2021/10/28 18:00:40;;;;;;;;;17.25;15.00;;;;;21.86;82.98;100595.94;5024517;28;45828;-80
2021/10/28 18:03:08;;;;;;;;;13.50;11.25;;;;;21.87;82.07;100605.69;5042097;28;46421;-81
2021/10/28 18:05:35;;;;;;;;;12.25;12.25;;;;;21.67;82.89;100605.31;5042392;28;45403;-81
2021/10/28 18:08:01;;;;;;;;;13.75;13.00;;;;;21.45;84.21;100608.84;5042478;28;45360;-81
2021/10/28 18:10:26;;;;;;;;;12.50;11.75;;;;;21.38;85.75;100605.19;5042292;28;45431;-81
2021/10/28 18:12:52;;;;;;;;;12.50;11.75;;;;;21.52;84.31;100599.06;5047615;28;46033;-81
2021/10/28 18:15:18;;;;;;;;;16.25;13.25;;;;;21.67;84.15;100593.75;5010745;28;45223;-81
2021/10/28 18:17:43;;;;;;;;;14.75;11.25;;;;;21.80;83.97;100593.16;5029048;28;45460;-81
2021/10/28 18:20:09;;;;;;;;;18.75;11.75;;;;;21.54;84.79;100597.03;5022534;28;45530;-81
2021/10/28 18:22:38;;;;;;;;;15.25;15.00;;;;;21.54;84.81;100596.19;5022414;28;45538;-81
2021/10/28 18:25:09;;;;;;;;;16.75;12.00;;;;;21.56;84.87;100596.88;5029572;28;45471;-81
2021/10/28 18:27:36;;;;;;;;;14.50;11.50;;;;;21.52;85.65;100592.84;5047834;28;45410;-81
2021/10/28 18:30:03;;;;;;;;;18.25;12.50;;;;;21.51;85.42;100596.53;5042235;28;45334;-81
2021/10/28 18:32:28;;;;;;;;;14.75;13.00;;;;;21.44;85.68;100585.69;5041586;28;46146;-81
2021/10/28 18:34:55;;;;;;;;;17.50;16.25;;;;;21.47;85.80;100590.72;5042780;28;45455;-81
2021/10/28 18:37:21;;;;;;;;;19.00;16.00;;;;;21.46;86.36;100594.41;5024001;28;45307;-81
2021/10/28 18:39:47;;;;;;;;;16.00;15.00;;;;;21.44;86.28;100593.75;5012893;28;45241;-79
2021/10/28 18:42:12;;;;;;;;;15.25;13.00;;;;;21.41;86.87;100587.88;5059464;28;45217;-82
2021/10/28 18:44:37;;;;;;;;;14.25;12.75;;;;;21.42;86.58;100585.00;5023642;28;44750;-81
2021/10/28 18:47:03;;;;;;;;;14.00;14.00;;;;;21.33;87.36;100586.06;5044826;28;44591;-81
2021/10/28 18:49:28;;;;;;;;;20.50;17.25;;;;;21.05;88.22;100582.16;5012726;28;45242;-81
2021/10/28 18:51:54;;;;;;;;;16.25;15.75;;;;;21.24;87.87;100579.91;5004331;28;46347;-81
2021/10/28 18:54:21;;;;;;;;;19.25;15.00;;;;;21.26;89.22;100582.44;5004448;28;45321;-81
2021/10/28 18:56:47;;;;;;;;;17.25;14.25;;;;;21.21;88.59;100574.88;5034732;28;44718;-81
2021/10/28 18:59:17;;;;;;;;;17.75;15.25;;;;;21.27;87.89;100568.84;5041835;28;45308;-81
2021/10/28 19:01:43;;;;;;;;;15.00;14.00;;;;;21.26;88.83;100569.00;5023558;28;46207;-81
2021/10/28 19:04:09;;;;;;;;;15.00;13.50;;;;;21.17;88.65;100561.97;5041241;28;45360;-81
2021/10/28 19:06:34;;;;;;;;;17.50;16.25;;;;;21.16;89.77;100568.34;5041936;28;45328;-81
2021/10/28 19:09:00;;;;;;;;;18.50;15.00;;;;;21.15;89.68;100562.13;5041446;28;45313;-81
2021/10/28 19:11:26;;;;;;;;;19.25;14.00;;;;;21.15;89.17;100558.63;5023414;28;47015;-81
2021/10/28 19:13:52;;;;;;;;;17.00;14.00;;;;;21.15;89.43;100558.63;5047252;28;45539;-81
2021/10/28 19:16:19;;;;;;;;;18.50;14.25;;;;;21.13;89.63;100566.00;5041464;28;45278;-81
2021/10/28 19:18:45;;;;;;;;;16.50;14.25;;;;;21.09;91.32;100567.38;5041021;28;45456;-80
2021/10/28 19:21:11;;;;;;;;;16.50;13.50;;;;;20.98;91.61;100557.03;5041142;28;45314;-81
2021/10/28 19:23:38;;;;;;;;;16.50;13.00;;;;;20.86;92.57;100546.69;5041023;28;45161;-81
2021/10/28 19:26:04;;;;;;;;;21.25;16.50;;;;;20.72;93.92;100555.47;5027748;28;45277;-81
2021/10/28 19:28:30;;;;;;;;;16.75;15.00;;;;;20.70;93.95;100546.75;5042948;28;45555;-80
2021/10/28 19:31:02;;;;;;;;;19.50;17.25;;;;;20.65;93.75;100541.09;5042872;28;46182;-80